This is the latest recevied weather packets stored in our database for station/object IZ5MMH-1. If no packets are shown the sender has not sent any weather packets the latest 10 day(s).
| Time | Temp. | Humidity | Pressure | Rain* | Wind** | Luminosity | Snow |
|---|---|---|---|---|---|---|---|
| 1787389092 | 33.33° C | 36% | 1014.6 hPa | - | - | - | - |
| 1787388492 | 33.33° C | 35% | 1014.6 hPa | - | - | - | - |
| 1787387892 | 32.78° C | 38% | 1014.5 hPa | - | - | - | - |
| 1787387292 | 32.78° C | 38% | 1014.5 hPa | - | - | - | - |
| 1787386693 | 32.22° C | 40% | 1014.3 hPa | - | - | - | - |
| 1787386093 | 31.67° C | 42% | 1014.3 hPa | - | - | - | - |
| 1787385492 | 31.67° C | 40% | 1014.4 hPa | - | - | - | - |
| 1787384892 | 31.67° C | 45% | 1014.5 hPa | - | - | - | - |
| 1787384292 | 31.11° C | 46% | 1014.4 hPa | - | - | - | - |
| 1787383692 | 31.11° C | 45% | 1014.3 hPa | - | - | - | - |
| 1787383093 | 30.56° C | 46% | 1014.4 hPa | - | - | - | - |
| 1787382492 | 31.11° C | 48% | 1014.3 hPa | - | - | - | - |
| 1787381892 | 31.11° C | 47% | 1014.4 hPa | - | - | - | - |
| 1787381292 | 31.11° C | 49% | 1014.5 hPa | - | - | - | - |
| 1787380692 | 30.56° C | 48% | 1014.4 hPa | - | - | - | - |
| 1787380091 | 30.56° C | 48% | 1014.3 hPa | - | - | - | - |
| 1787379492 | 30° C | 51% | 1014.3 hPa | - | - | - | - |
| 1787378892 | 28.89° C | 52% | 1014.1 hPa | - | - | - | - |
| 1787378292 | 28.33° C | 53% | 1014.2 hPa | - | - | - | - |
| 1787377691 | 27.78° C | 57% | 1014.1 hPa | - | - | - | - |
| 1787377091 | 26.11° C | 62% | 1014.1 hPa | - | - | - | - |
| 1787376492 | 23.89° C | 69% | 1014 hPa | - | - | - | - |
| 1787375891 | 20.56° C | 74% | 1014.1 hPa | - | - | - | - |
| 1787375292 | 19.44° C | 74% | 1014.1 hPa | - | - | - | - |
| 1787374692 | 19.44° C | 74% | 1014 hPa | - | - | - | - |
* Rain since midnight (hover to see other rain measurements)
** Current wind speed in m/s (hover to see current wind gust speed)